createdAt,value
2023-03-21T00:00:47.484Z,94.36
2023-03-21T00:03:15.476Z,93.75
2023-03-21T00:05:44.428Z,93.58
2023-03-21T00:08:11.688Z,93.57
2023-03-21T00:10:43.464Z,93.56
2023-03-21T00:13:11.587Z,93.48
2023-03-21T00:15:46.271Z,93.27
2023-03-21T00:18:20.131Z,93.12
2023-03-21T00:21:09.764Z,93.19
2023-03-21T00:23:43.849Z,93.38
2023-03-21T00:26:11.107Z,93.47
2023-03-21T00:28:39.474Z,93.90
2023-03-21T00:31:07.262Z,93.88
2023-03-21T00:33:36.697Z,94.00
2023-03-21T00:36:12.585Z,93.52
2023-03-21T00:38:40.043Z,93.24
2023-03-21T00:41:19.258Z,93.47
2023-03-21T00:43:48.480Z,93.99
2023-03-21T00:46:15.709Z,93.99
2023-03-21T00:48:44.288Z,94.03
2023-03-21T00:51:14.240Z,94.01
2023-03-21T00:53:42.066Z,93.74
2023-03-21T00:56:09.690Z,94.11
2023-03-21T00:58:36.826Z,94.18
2023-03-21T01:01:04.649Z,94.34
2023-03-21T01:03:33.599Z,94.44
2023-03-21T01:06:02.123Z,94.10
2023-03-21T01:08:38.188Z,93.58
2023-03-21T01:11:14.099Z,94.03
2023-03-21T01:13:51.194Z,94.35
2023-03-21T01:16:24.259Z,95.08
2023-03-21T01:18:51.469Z,95.33
2023-03-21T01:21:20.027Z,95.33
2023-03-21T01:23:47.670Z,95.60
2023-03-21T01:26:15.580Z,95.42
2023-03-21T01:28:45.044Z,95.67
2023-03-21T01:31:14.783Z,95.89
2023-03-21T01:33:43.038Z,96.75
2023-03-21T01:36:15.124Z,96.61
2023-03-21T01:38:44.462Z,96.28
2023-03-21T01:41:22.047Z,96.39
2023-03-21T01:43:50.260Z,96.71
2023-03-21T01:46:30.236Z,96.77
2023-03-21T01:49:26.798Z,96.11
2023-03-21T01:52:12.179Z,97.01
2023-03-21T01:54:44.352Z,97.50
2023-03-21T01:57:16.756Z,97.91
2023-03-21T01:59:47.761Z,98.23
2023-03-21T02:02:29.126Z,98.03
2023-03-21T02:05:08.294Z,98.40
2023-03-21T02:07:36.943Z,97.96
2023-03-21T02:10:10.037Z,97.95
2023-03-21T02:12:40.106Z,97.42
2023-03-21T02:15:09.515Z,97.01
2023-03-21T02:17:56.480Z,97.19
2023-03-21T02:20:54.880Z,97.42
2023-03-21T02:24:19.724Z,97.97
2023-03-21T02:27:04.036Z,98.63
2023-03-21T02:30:45.626Z,98.17
2023-03-21T02:33:43.381Z,98.24
2023-03-21T02:36:27.888Z,97.92
2023-03-21T02:39:01.767Z,98.01
2023-03-21T02:41:40.576Z,98.44
2023-03-21T02:44:16.751Z,98.60
2023-03-21T02:46:56.352Z,99.02
2023-03-21T02:49:31.094Z,99.41
2023-03-21T02:52:08.555Z,99.72
2023-03-21T02:54:48.311Z,99.83
2023-03-21T02:57:21.286Z,99.84
2023-03-21T02:59:56.866Z,99.98
2023-03-21T03:02:31.867Z,99.37
2023-03-21T03:04:59.056Z,99.72
2023-03-21T03:07:44.386Z,98.93
2023-03-21T03:10:31.391Z,98.36
2023-03-21T03:13:11.319Z,98.16
2023-03-21T03:15:47.058Z,97.94
2023-03-21T03:18:20.774Z,98.06
2023-03-21T03:21:00.006Z,98.66
2023-03-21T03:23:33.638Z,98.64
2023-03-21T03:26:06.598Z,98.78
2023-03-21T03:28:38.973Z,98.19
2023-03-21T03:31:15.141Z,98.56
2023-03-21T03:33:51.461Z,98.49
2023-03-21T03:36:31.693Z,98.73
2023-03-21T03:39:05.413Z,98.50
2023-03-21T03:42:04.440Z,98.85
2023-03-21T03:44:32.769Z,98.24
2023-03-21T03:47:07.906Z,98.66
2023-03-21T03:49:41.985Z,98.91
2023-03-21T03:52:16.010Z,99.10
2023-03-21T03:54:52.221Z,98.88
2023-03-21T03:57:25.120Z,99.26
2023-03-21T03:59:52.840Z,99.23
2023-03-21T04:02:24.595Z,99.48
2023-03-21T04:04:52.407Z,99.61
2023-03-21T04:07:20.375Z,99.52
2023-03-21T04:09:48.975Z,99.40
2023-03-21T04:12:19.357Z,99.37
2023-03-21T04:15:20.427Z,99.57
2023-03-21T04:17:56.193Z,99.05
2023-03-21T04:20:36.223Z,98.76
2023-03-21T04:23:05.160Z,99.56
2023-03-21T04:25:34.687Z,99.80
2023-03-21T04:28:04.274Z,99.43
2023-03-21T04:31:02.242Z,99.06
2023-03-21T04:33:37.893Z,99.44
2023-03-21T04:36:07.271Z,99.98
2023-03-21T04:38:34.624Z,99.67
2023-03-21T04:41:04.233Z,100.00
2023-03-21T04:43:31.618Z,99.90
2023-03-21T04:46:00.153Z,100.00
2023-03-21T04:48:27.879Z,100.00
2023-03-21T04:50:55.081Z,100.00
2023-03-21T04:53:22.289Z,100.00
2023-03-21T04:55:52.482Z,100.00
2023-03-21T04:58:21.322Z,99.43
2023-03-21T05:00:48.573Z,99.15
2023-03-21T05:03:17.076Z,98.85
2023-03-21T05:05:44.266Z,99.15
2023-03-21T05:08:11.653Z,98.93
2023-03-21T05:10:39.277Z,98.83
2023-03-21T05:13:06.601Z,98.96
2023-03-21T05:15:33.837Z,99.01
2023-03-21T05:18:01.374Z,99.03
2023-03-21T05:20:29.937Z,99.18
2023-03-21T05:22:57.113Z,99.11
2023-03-21T05:25:24.291Z,98.75
2023-03-21T05:28:14.597Z,99.58
2023-03-21T05:30:43.040Z,99.99
2023-03-21T05:33:10.309Z,100.00
2023-03-21T05:35:39.578Z,100.00
2023-03-21T05:38:09.555Z,100.00
2023-03-21T05:40:47.832Z,100.00
2023-03-21T05:43:15.027Z,100.00
2023-03-21T05:45:42.681Z,100.00
2023-03-21T05:48:10.229Z,100.00
2023-03-21T05:50:54.800Z,100.00
2023-03-21T05:53:23.413Z,100.00
2023-03-21T05:55:50.772Z,100.00
2023-03-21T05:58:37.181Z,100.00
2023-03-21T06:01:05.364Z,100.00
2023-03-21T06:03:35.459Z,100.00
2023-03-21T06:06:08.288Z,100.00
2023-03-21T06:08:45.329Z,100.00
2023-03-21T06:11:23.087Z,100.00
2023-03-21T06:13:52.333Z,100.00
2023-03-21T06:16:22.826Z,100.00
2023-03-21T06:18:51.375Z,100.00
2023-03-21T06:21:31.797Z,100.00
2023-03-21T06:23:58.965Z,100.00
2023-03-21T06:26:26.098Z,100.00
2023-03-21T06:28:54.733Z,100.00
2023-03-21T06:31:22.353Z,100.00
2023-03-21T06:33:49.668Z,100.00
2023-03-21T06:36:16.979Z,100.00
2023-03-21T06:38:45.631Z,99.91
2023-03-21T06:41:13.545Z,98.63
2023-03-21T06:43:45.793Z,97.62
2023-03-21T06:46:13.034Z,96.85
2023-03-21T06:48:40.309Z,96.48
2023-03-21T06:51:07.712Z,96.23
2023-03-21T06:53:38.316Z,96.60
2023-03-21T06:56:36.263Z,97.85
2023-03-21T06:59:04.576Z,97.37
2023-03-21T07:02:01.100Z,96.81
2023-03-21T07:04:29.296Z,95.06
2023-03-21T07:06:57.890Z,94.57
2023-03-21T07:09:26.653Z,95.11
2023-03-21T07:11:56.392Z,92.80
2023-03-21T07:14:27.165Z,92.03
2023-03-21T07:16:54.446Z,91.44
2023-03-21T07:19:21.657Z,88.77
2023-03-21T07:21:48.885Z,89.60
2023-03-21T07:24:16.099Z,87.48
2023-03-21T07:26:43.333Z,86.22
2023-03-21T07:29:12.177Z,85.59
2023-03-21T07:31:40.590Z,85.93
2023-03-21T07:34:08.104Z,84.60
2023-03-21T07:36:35.352Z,83.93
2023-03-21T07:39:02.646Z,83.34
2023-03-21T07:41:30.598Z,82.13
2023-03-21T07:44:11.849Z,80.96
2023-03-21T07:46:39.025Z,79.71
2023-03-21T07:49:06.264Z,77.54
2023-03-21T07:51:33.413Z,76.73
2023-03-21T07:54:00.614Z,76.88
2023-03-21T07:56:27.847Z,74.22
2023-03-21T07:58:55.051Z,74.02
2023-03-21T08:01:23.659Z,73.92
2023-03-21T08:03:50.983Z,72.33
2023-03-21T08:06:18.155Z,72.49
2023-03-21T08:08:45.352Z,71.46
2023-03-21T08:11:13.307Z,70.72
2023-03-21T08:13:40.922Z,70.79
2023-03-21T08:16:08.982Z,68.74
2023-03-21T08:18:37.497Z,68.76
2023-03-21T08:21:05.132Z,67.61
2023-03-21T08:23:32.298Z,67.07
2023-03-21T08:25:59.551Z,68.47
2023-03-21T08:28:27.138Z,68.99
2023-03-21T08:30:54.440Z,67.38
2023-03-21T08:33:21.830Z,66.53
2023-03-21T08:35:50.375Z,68.11
2023-03-21T08:38:17.566Z,67.24
2023-03-21T08:40:44.841Z,65.59
2023-03-21T08:43:14.652Z,65.38
2023-03-21T08:45:42.089Z,66.80
2023-03-21T08:48:09.340Z,65.60
2023-03-21T08:50:36.539Z,65.23
2023-03-21T08:53:05.218Z,63.81
2023-03-21T08:55:32.438Z,64.88
2023-03-21T08:57:59.736Z,65.10
2023-03-21T09:00:26.939Z,64.02
2023-03-21T09:02:54.309Z,62.87
2023-03-21T09:05:21.836Z,63.60
2023-03-21T09:07:49.447Z,63.69
2023-03-21T09:10:23.078Z,62.98
2023-03-21T09:12:51.836Z,62.49
2023-03-21T09:15:19.685Z,62.71
2023-03-21T09:17:47.383Z,62.27
2023-03-21T09:20:14.809Z,62.36
2023-03-21T09:22:42.875Z,62.62
2023-03-21T09:25:10.120Z,62.01
2023-03-21T09:27:38.840Z,61.41
2023-03-21T09:30:07.307Z,58.82
2023-03-21T09:32:34.515Z,60.07
2023-03-21T09:35:01.716Z,60.36
2023-03-21T09:37:28.919Z,59.91
2023-03-21T09:39:56.147Z,59.49
2023-03-21T09:42:34.344Z,60.41
2023-03-21T09:45:12.021Z,60.37
2023-03-21T09:47:43.793Z,59.32
2023-03-21T09:50:15.388Z,58.16
2023-03-21T09:52:45.735Z,59.65
2023-03-21T09:55:17.283Z,58.80
2023-03-21T09:57:45.202Z,57.58
2023-03-21T10:00:20.301Z,58.22
2023-03-21T10:02:48.912Z,59.00
2023-03-21T10:05:18.816Z,57.39
2023-03-21T10:07:50.917Z,58.48
2023-03-21T10:10:21.718Z,59.38
2023-03-21T10:12:52.561Z,58.50
2023-03-21T10:15:23.001Z,58.73
2023-03-21T10:17:55.723Z,58.55
2023-03-21T10:20:24.428Z,58.37
2023-03-21T10:22:54.127Z,59.59
2023-03-21T10:25:26.201Z,58.99
2023-03-21T10:27:53.808Z,58.98
2023-03-21T10:30:35.439Z,59.68
2023-03-21T10:33:06.184Z,60.13
2023-03-21T10:35:34.309Z,59.98
2023-03-21T10:38:01.603Z,59.72
2023-03-21T10:40:34.166Z,61.40
2023-03-21T10:43:18.226Z,59.19
2023-03-21T10:45:48.107Z,61.44
2023-03-21T10:48:15.834Z,61.41
2023-03-21T10:50:46.149Z,62.15
2023-03-21T10:53:19.050Z,62.69
2023-03-21T10:55:48.661Z,61.03
2023-03-21T10:58:20.059Z,62.38
2023-03-21T11:00:48.778Z,62.07
2023-03-21T11:03:22.476Z,62.15
2023-03-21T11:05:55.237Z,61.64
2023-03-21T11:08:22.542Z,61.54
2023-03-21T11:11:01.747Z,62.15
2023-03-21T11:13:34.495Z,61.67
2023-03-21T11:16:08.189Z,62.53
2023-03-21T11:18:41.632Z,62.45
2023-03-21T11:21:10.928Z,61.69
2023-03-21T11:23:41.781Z,62.43
2023-03-21T11:26:11.766Z,63.59
2023-03-21T11:28:41.398Z,63.33
2023-03-21T11:31:10.132Z,62.38
2023-03-21T11:33:39.059Z,63.36
2023-03-21T11:36:24.228Z,64.22
2023-03-21T11:38:53.515Z,65.83
2023-03-21T11:41:24.507Z,66.38
2023-03-21T11:43:53.210Z,67.71
2023-03-21T11:46:25.834Z,68.06
2023-03-21T11:48:53.361Z,67.40
2023-03-21T11:51:28.306Z,67.45
2023-03-21T11:54:03.115Z,67.67
2023-03-21T11:56:35.394Z,68.74
2023-03-21T11:59:21.151Z,70.27
2023-03-21T12:02:01.304Z,69.85
2023-03-21T12:04:40.339Z,67.59
2023-03-21T12:07:22.197Z,68.44
2023-03-21T12:09:54.901Z,67.30
2023-03-21T12:12:38.771Z,68.03
2023-03-21T12:15:16.150Z,68.64
2023-03-21T12:17:54.619Z,64.65
2023-03-21T12:20:32.650Z,66.00
2023-03-21T12:23:14.828Z,65.59
2023-03-21T12:25:47.499Z,65.50
2023-03-21T12:28:32.676Z,66.12
2023-03-21T12:31:09.285Z,68.19
2023-03-21T12:33:48.724Z,67.47
2023-03-21T12:36:41.700Z,70.93
2023-03-21T12:39:22.970Z,70.44
2023-03-21T12:42:00.466Z,68.48
2023-03-21T12:44:31.668Z,69.11
2023-03-21T12:47:02.799Z,68.45
2023-03-21T12:49:35.391Z,69.40
2023-03-21T12:52:06.484Z,68.40
2023-03-21T12:54:39.258Z,72.97
2023-03-21T12:57:10.469Z,71.85
2023-03-21T12:59:44.018Z,70.70
2023-03-21T13:02:20.124Z,72.92
2023-03-21T13:05:01.210Z,72.90
2023-03-21T13:07:34.172Z,75.35
2023-03-21T13:10:11.652Z,73.80
2023-03-21T13:12:47.982Z,74.57
2023-03-21T13:15:45.239Z,74.55
2023-03-21T13:18:20.756Z,77.41
2023-03-21T13:20:52.549Z,77.67
2023-03-21T13:23:21.244Z,75.69
2023-03-21T13:25:50.131Z,77.04
2023-03-21T13:28:21.155Z,77.51
2023-03-21T13:30:49.543Z,79.99
2023-03-21T13:33:22.116Z,79.03
2023-03-21T13:36:00.118Z,80.17
2023-03-21T13:38:29.272Z,80.86
2023-03-21T13:40:59.211Z,77.77
2023-03-21T13:43:42.607Z,78.32
2023-03-21T13:46:12.023Z,77.76
2023-03-21T13:49:00.184Z,79.13
2023-03-21T13:51:45.772Z,81.64
2023-03-21T13:54:22.956Z,80.85
2023-03-21T13:56:54.146Z,82.39
2023-03-21T13:59:38.274Z,81.08
2023-03-21T14:02:23.122Z,80.54
2023-03-21T14:05:05.398Z,80.68
2023-03-21T14:07:39.820Z,81.62
2023-03-21T14:10:18.798Z,80.79
2023-03-21T14:12:46.485Z,81.79
2023-03-21T14:15:19.244Z,82.21
2023-03-21T14:17:50.873Z,84.07
2023-03-21T14:20:21.512Z,82.58
2023-03-21T14:22:50.372Z,83.42
2023-03-21T14:25:20.185Z,84.10
2023-03-21T14:27:49.722Z,81.79
2023-03-21T14:30:23.183Z,83.42
2023-03-21T14:32:50.503Z,84.02
2023-03-21T14:35:17.710Z,83.70
2023-03-21T14:37:46.992Z,85.53
2023-03-21T14:40:23.206Z,84.71
2023-03-21T14:42:51.558Z,84.31
2023-03-21T14:45:21.392Z,84.30
2023-03-21T14:47:56.035Z,85.67
2023-03-21T14:50:28.078Z,87.09
2023-03-21T14:52:55.567Z,86.66
2023-03-21T14:55:24.538Z,85.80
2023-03-21T14:57:52.071Z,86.66
2023-03-21T15:00:24.808Z,86.06
2023-03-21T15:02:53.673Z,87.55
2023-03-21T15:05:25.286Z,89.47
2023-03-21T15:07:55.042Z,91.51
2023-03-21T15:10:24.260Z,91.86
2023-03-21T15:12:53.712Z,90.68
2023-03-21T15:15:23.387Z,90.62
2023-03-21T15:17:52.365Z,89.99
2023-03-21T15:20:22.442Z,90.25
2023-03-21T15:22:54.063Z,93.44
2023-03-21T15:25:26.595Z,93.27
2023-03-21T15:27:55.464Z,93.07
2023-03-21T15:30:25.050Z,92.01
2023-03-21T15:32:52.518Z,91.41
2023-03-21T15:35:25.234Z,89.95
2023-03-21T15:37:55.155Z,89.25
2023-03-21T15:40:26.374Z,89.83
2023-03-21T15:43:05.260Z,89.97
2023-03-21T15:45:32.519Z,90.09
2023-03-21T15:48:01.845Z,90.18
2023-03-21T15:50:34.739Z,90.92
2023-03-21T15:53:04.906Z,92.45
2023-03-21T15:55:42.342Z,93.31
2023-03-21T15:58:15.219Z,95.54
2023-03-21T16:00:44.256Z,94.66
2023-03-21T16:03:15.692Z,95.38
2023-03-21T16:05:43.135Z,95.83
2023-03-21T16:08:20.198Z,95.67
2023-03-21T16:10:48.875Z,96.27
2023-03-21T16:13:16.062Z,96.26
2023-03-21T16:15:43.767Z,97.70
2023-03-21T16:18:14.614Z,97.50
2023-03-21T16:20:44.190Z,97.21
2023-03-21T16:23:12.199Z,97.43
2023-03-21T16:25:40.416Z,98.46
2023-03-21T16:28:14.101Z,98.87
2023-03-21T16:30:41.342Z,98.06
2023-03-21T16:33:10.531Z,99.45
2023-03-21T16:35:37.874Z,100.00
2023-03-21T16:38:05.092Z,99.34
2023-03-21T16:40:36.046Z,97.84
2023-03-21T16:43:04.621Z,97.71
2023-03-21T16:45:33.342Z,97.83
2023-03-21T16:48:00.654Z,98.72
2023-03-21T16:50:30.744Z,98.88
2023-03-21T16:52:58.291Z,98.21
2023-03-21T16:55:25.892Z,99.67
2023-03-21T16:57:53.688Z,100.00
2023-03-21T17:00:23.762Z,100.00
2023-03-21T17:02:52.795Z,100.00
2023-03-21T17:05:21.075Z,100.00
2023-03-21T17:07:48.558Z,100.00
2023-03-21T17:10:19.288Z,100.00
2023-03-21T17:12:46.830Z,100.00
2023-03-21T17:15:14.754Z,100.00
2023-03-21T17:17:41.962Z,100.00
2023-03-21T17:20:21.423Z,100.00
2023-03-21T17:22:48.898Z,100.00
2023-03-21T17:25:17.058Z,100.00
2023-03-21T17:27:45.033Z,100.00
2023-03-21T17:30:21.489Z,100.00
2023-03-21T17:32:49.074Z,100.00
2023-03-21T17:35:18.654Z,100.00
2023-03-21T17:37:46.860Z,100.00
2023-03-21T17:40:14.086Z,100.00
2023-03-21T17:42:41.239Z,100.00
2023-03-21T17:45:09.370Z,100.00
2023-03-21T17:47:37.133Z,100.00
2023-03-21T17:50:05.241Z,100.00
2023-03-21T17:52:33.741Z,100.00
2023-03-21T17:55:00.951Z,100.00
2023-03-21T17:57:28.115Z,100.00
2023-03-21T17:59:55.304Z,100.00
2023-03-21T18:02:22.543Z,100.00
2023-03-21T18:04:49.799Z,100.00
2023-03-21T18:07:28.694Z,100.00
2023-03-21T18:10:06.871Z,100.00
2023-03-21T18:12:34.099Z,100.00
2023-03-21T18:15:01.517Z,100.00
2023-03-21T18:17:28.730Z,100.00
2023-03-21T18:19:55.899Z,100.00
2023-03-21T18:22:23.054Z,100.00
2023-03-21T18:24:50.298Z,100.00
2023-03-21T18:27:19.042Z,100.00
2023-03-21T18:32:33.621Z,100.00
2023-03-21T18:35:00.995Z,100.00
2023-03-21T18:37:30.409Z,100.00
2023-03-21T18:39:58.457Z,100.00
2023-03-21T18:42:30.696Z,100.00
2023-03-21T18:44:58.306Z,100.00
2023-03-21T18:47:25.501Z,100.00
2023-03-21T18:52:39.972Z,100.00
2023-03-21T18:55:08.986Z,100.00
2023-03-21T18:57:38.834Z,100.00
2023-03-21T19:00:08.786Z,100.00
2023-03-21T19:02:41.935Z,100.00
2023-03-21T19:05:13.122Z,100.00
2023-03-21T19:07:40.314Z,100.00
2023-03-21T19:10:23.558Z,100.00
2023-03-21T19:12:53.115Z,100.00
2023-03-21T19:15:21.732Z,100.00
2023-03-21T19:20:38.563Z,100.00
2023-03-21T19:23:05.913Z,100.00
2023-03-21T19:25:33.200Z,100.00
2023-03-21T19:28:01.772Z,100.00
2023-03-21T19:30:29.218Z,100.00
2023-03-21T19:32:56.440Z,100.00
2023-03-21T19:35:23.830Z,100.00
2023-03-21T19:37:51.023Z,100.00
2023-03-21T19:40:18.243Z,100.00
2023-03-21T19:42:45.901Z,100.00
2023-03-21T19:45:14.477Z,100.00
2023-03-21T19:47:41.717Z,100.00
2023-03-21T19:52:57.277Z,100.00
2023-03-21T19:55:25.337Z,100.00
2023-03-21T19:57:52.540Z,100.00
2023-03-21T20:00:22.634Z,100.00
2023-03-21T20:02:50.160Z,100.00
2023-03-21T20:05:19.077Z,100.00
2023-03-21T20:07:46.472Z,100.00
2023-03-21T20:10:14.091Z,100.00
2023-03-21T20:12:41.319Z,100.00
2023-03-21T20:15:17.813Z,100.00
2023-03-21T20:17:49.058Z,100.00
2023-03-21T20:20:17.544Z,100.00
2023-03-21T20:23:06.098Z,100.00
2023-03-21T20:25:34.281Z,100.00
2023-03-21T20:28:15.264Z,100.00
2023-03-21T20:30:45.897Z,100.00
2023-03-21T20:33:14.577Z,100.00
2023-03-21T20:38:29.005Z,100.00
2023-03-21T20:40:56.496Z,100.00
2023-03-21T20:44:11.702Z,100.00
2023-03-21T20:46:12.579Z,100.00
2023-03-21T20:48:41.395Z,100.00
2023-03-21T20:52:14.833Z,100.00
2023-03-21T20:53:57.917Z,100.00
2023-03-21T20:56:25.171Z,100.00
2023-03-21T20:59:07.985Z,100.00
2023-03-21T21:01:39.451Z,100.00
2023-03-21T21:04:09.451Z,100.00
2023-03-21T21:06:36.877Z,100.00
2023-03-21T21:09:04.199Z,100.00
2023-03-21T21:14:18.557Z,100.00
2023-03-21T21:16:46.013Z,100.00
2023-03-21T21:19:14.638Z,100.00
2023-03-21T21:21:41.857Z,100.00
2023-03-21T21:24:09.111Z,100.00
2023-03-21T21:26:36.299Z,100.00
2023-03-21T21:29:03.510Z,100.00
2023-03-21T21:31:30.843Z,100.00
2023-03-21T21:33:58.255Z,100.00
2023-03-21T21:36:26.880Z,100.00
2023-03-21T21:38:54.594Z,100.00
2023-03-21T21:41:23.136Z,100.00
2023-03-21T21:43:50.459Z,100.00
2023-03-21T21:46:17.664Z,100.00
2023-03-21T21:48:44.829Z,100.00
2023-03-21T21:51:12.108Z,100.00
2023-03-21T21:53:40.599Z,100.00
2023-03-21T21:56:08.983Z,100.00
2023-03-21T21:58:36.214Z,100.00
2023-03-21T22:01:03.510Z,100.00
2023-03-21T22:03:30.737Z,100.00
2023-03-21T22:06:02.974Z,100.00
2023-03-21T22:08:30.148Z,100.00
2023-03-21T22:10:59.719Z,100.00
2023-03-21T22:13:27.162Z,100.00
2023-03-21T22:15:54.570Z,100.00
2023-03-21T22:18:22.050Z,100.00
2023-03-21T22:20:49.282Z,100.00
2023-03-21T22:23:16.444Z,100.00
2023-03-21T22:25:49.472Z,100.00
2023-03-21T22:28:17.966Z,100.00
2023-03-21T22:30:45.139Z,100.00
2023-03-21T22:33:12.334Z,100.00
2023-03-21T22:35:39.637Z,100.00
2023-03-21T22:38:06.849Z,100.00
2023-03-21T22:40:34.052Z,100.00
2023-03-21T22:43:01.240Z,100.00
2023-03-21T22:45:29.795Z,100.00
2023-03-21T22:47:57.035Z,100.00
2023-03-21T22:50:24.265Z,100.00
2023-03-21T22:52:51.462Z,100.00
2023-03-21T22:55:18.737Z,100.00
2023-03-21T22:57:45.901Z,100.00
2023-03-21T23:00:14.050Z,100.00
2023-03-21T23:02:42.664Z,100.00
2023-03-21T23:05:10.301Z,100.00
2023-03-21T23:07:37.984Z,100.00
2023-03-21T23:10:06.320Z,100.00
2023-03-21T23:12:33.598Z,100.00
2023-03-21T23:15:02.278Z,100.00
2023-03-21T23:17:29.728Z,100.00
2023-03-21T23:19:58.286Z,100.00
2023-03-21T23:22:25.444Z,100.00
2023-03-21T23:24:52.609Z,100.00
2023-03-21T23:27:19.859Z,100.00
2023-03-21T23:29:47.144Z,100.00
2023-03-21T23:32:14.481Z,100.00
2023-03-21T23:34:41.659Z,100.00
2023-03-21T23:37:10.183Z,100.00
2023-03-21T23:39:38.161Z,100.00
2023-03-21T23:42:05.858Z,100.00
2023-03-21T23:44:33.090Z,100.00
2023-03-21T23:47:00.368Z,100.00
2023-03-21T23:49:27.611Z,100.00
2023-03-21T23:51:54.827Z,100.00
2023-03-21T23:54:23.374Z,100.00
2023-03-21T23:56:50.589Z,100.00
2023-03-21T23:59:17.817Z,100.00
